createdAt,value
2022-11-23T00:01:25.470Z,23.10
2022-11-23T00:03:55.076Z,22.77
2022-11-23T00:06:25.603Z,24.37
2022-11-23T00:08:54.972Z,25.27
2022-11-23T00:11:24.441Z,23.07
2022-11-23T00:13:53.112Z,22.90
2022-11-23T00:16:23.498Z,23.67
2022-11-23T00:18:53.928Z,23.43
2022-11-23T00:21:22.647Z,23.60
2022-11-23T00:23:52.449Z,23.33
2022-11-23T00:26:20.991Z,24.20
2022-11-23T00:28:49.304Z,24.23
2022-11-23T00:31:18.862Z,23.83
2022-11-23T00:33:50.421Z,25.23
2022-11-23T00:36:20.408Z,23.60
2022-11-23T00:38:49.360Z,24.70
2022-11-23T00:41:20.371Z,24.07
2022-11-23T00:43:48.768Z,24.30
2022-11-23T00:46:18.795Z,23.07
2022-11-23T00:48:48.016Z,24.17
2022-11-23T00:51:17.867Z,23.13
2022-11-23T00:53:45.990Z,24.57
2022-11-23T00:56:14.748Z,23.00
2022-11-23T00:58:44.083Z,25.33
2022-11-23T01:01:13.616Z,25.43
2022-11-23T01:03:44.310Z,25.30
2022-11-23T01:06:14.389Z,23.67
2022-11-23T01:08:42.587Z,23.40
2022-11-23T01:11:12.854Z,24.53
2022-11-23T01:13:43.676Z,23.50
2022-11-23T01:16:20.845Z,24.93
2022-11-23T01:18:53.744Z,23.87
2022-11-23T01:21:24.479Z,24.40
2022-11-23T01:23:52.593Z,23.33
2022-11-23T01:26:20.989Z,22.63
2022-11-23T01:28:50.788Z,23.00
2022-11-23T01:31:20.547Z,23.70
2022-11-23T01:33:49.071Z,23.00
2022-11-23T01:36:19.408Z,22.60
2022-11-23T01:38:48.825Z,21.93
2022-11-23T01:41:18.646Z,22.90
2022-11-23T01:43:47.509Z,22.77
2022-11-23T01:46:16.802Z,22.50
2022-11-23T01:48:48.618Z,22.60
2022-11-23T01:51:21.426Z,22.33
2022-11-23T01:53:52.486Z,23.53
2022-11-23T01:56:24.399Z,23.17
2022-11-23T01:58:55.495Z,23.60
2022-11-23T02:01:24.895Z,23.50
2022-11-23T02:03:54.507Z,21.90
2022-11-23T02:06:24.131Z,22.37
2022-11-23T02:08:52.450Z,22.57
2022-11-23T02:11:21.686Z,23.43
2022-11-23T02:13:51.794Z,21.87
2022-11-23T02:16:20.325Z,23.83
2022-11-23T02:18:52.074Z,24.00
2022-11-23T02:21:21.955Z,23.50
2022-11-23T02:23:56.611Z,24.40
2022-11-23T02:26:27.337Z,25.03
2022-11-23T02:29:02.104Z,23.93
2022-11-23T02:31:32.293Z,24.87
2022-11-23T02:34:00.333Z,23.80
2022-11-23T02:36:37.249Z,24.97
2022-11-23T02:39:13.028Z,24.17
2022-11-23T02:41:44.255Z,23.87
2022-11-23T02:44:24.094Z,23.40
2022-11-23T02:46:52.673Z,22.27
2022-11-23T02:49:20.672Z,21.70
2022-11-23T02:51:50.823Z,21.93
2022-11-23T02:54:18.835Z,21.17
2022-11-23T02:56:48.183Z,22.17
2022-11-23T02:59:16.242Z,21.17
2022-11-23T03:01:45.035Z,20.97
2022-11-23T03:04:14.681Z,21.37
2022-11-23T03:06:43.029Z,20.47
2022-11-23T03:09:11.518Z,21.57
2022-11-23T03:11:39.490Z,20.47
2022-11-23T03:14:09.010Z,20.03
2022-11-23T03:16:45.029Z,20.90
2022-11-23T03:19:13.575Z,19.10
2022-11-23T03:21:41.568Z,20.47
2022-11-23T03:24:09.585Z,20.30
2022-11-23T03:26:38.482Z,21.00
2022-11-23T03:29:12.729Z,20.17
2022-11-23T03:31:41.542Z,22.07
2022-11-23T03:34:13.540Z,21.77
2022-11-23T03:36:41.881Z,20.50
2022-11-23T03:39:10.371Z,20.60
2022-11-23T03:41:58.670Z,20.83
2022-11-23T03:44:34.008Z,22.87
2022-11-23T03:47:01.973Z,19.93
2022-11-23T03:49:30.610Z,22.07
2022-11-23T03:51:59.006Z,21.70
2022-11-23T03:54:28.730Z,22.63
2022-11-23T03:56:56.674Z,21.73
2022-11-23T03:59:24.689Z,22.23
2022-11-23T04:01:55.015Z,21.77
2022-11-23T04:04:27.372Z,22.53
2022-11-23T04:07:04.267Z,21.80
2022-11-23T04:09:36.063Z,21.53
2022-11-23T04:12:07.418Z,23.10
2022-11-23T04:14:38.075Z,23.03
2022-11-23T04:17:07.441Z,21.57
2022-11-23T04:19:35.517Z,22.87
2022-11-23T04:22:03.801Z,22.50
2022-11-23T04:24:37.379Z,21.03
2022-11-23T04:27:07.537Z,20.57
2022-11-23T04:29:35.558Z,20.87
2022-11-23T04:32:03.518Z,20.87
2022-11-23T04:34:33.208Z,18.43
2022-11-23T04:37:06.788Z,18.87
2022-11-23T04:39:39.836Z,17.07
2022-11-23T04:42:36.683Z,18.23
2022-11-23T04:45:05.207Z,18.07
2022-11-23T04:47:34.056Z,18.20
2022-11-23T04:50:08.481Z,18.20
2022-11-23T04:52:36.365Z,19.57
2022-11-23T04:55:09.302Z,20.23
2022-11-23T04:57:42.738Z,18.93
2022-11-23T05:00:11.901Z,19.40
2022-11-23T05:02:40.046Z,20.33
2022-11-23T05:05:28.584Z,20.50
2022-11-23T05:07:58.829Z,19.67
2022-11-23T05:10:37.876Z,19.37
2022-11-23T05:13:06.520Z,18.53
2022-11-23T05:15:34.548Z,18.47
2022-11-23T05:18:03.557Z,18.43
2022-11-23T05:20:33.606Z,17.70
2022-11-23T05:23:01.769Z,17.33
2022-11-23T05:25:31.569Z,17.43
2022-11-23T05:28:11.386Z,17.73
2022-11-23T05:30:51.650Z,16.20
2022-11-23T05:33:20.262Z,15.93
2022-11-23T05:35:49.845Z,16.07
2022-11-23T05:38:21.027Z,15.70
2022-11-23T05:40:49.191Z,16.87
2022-11-23T05:43:17.488Z,17.57
2022-11-23T05:45:45.637Z,16.37
2022-11-23T05:48:15.166Z,17.47
2022-11-23T05:50:58.602Z,16.50
2022-11-23T05:53:35.723Z,16.40
2022-11-23T05:56:16.929Z,15.87
2022-11-23T05:59:00.027Z,14.70
2022-11-23T06:01:28.035Z,14.70
2022-11-23T06:04:00.397Z,14.37
2022-11-23T06:06:33.481Z,14.77
2022-11-23T06:09:01.648Z,15.50
2022-11-23T06:11:31.323Z,15.53
2022-11-23T06:14:04.703Z,15.70
2022-11-23T06:16:33.404Z,16.77
2022-11-23T06:19:13.264Z,15.87
2022-11-23T06:21:48.969Z,15.97
2022-11-23T06:24:20.127Z,15.17
2022-11-23T06:26:57.182Z,15.97
2022-11-23T06:29:25.297Z,15.13
2022-11-23T06:31:54.412Z,15.83
2022-11-23T06:34:22.641Z,14.93
2022-11-23T06:36:52.171Z,15.63
2022-11-23T06:39:20.160Z,14.57
2022-11-23T06:41:49.402Z,14.43
2022-11-23T06:44:18.892Z,15.83
2022-11-23T06:46:46.882Z,17.00
2022-11-23T06:49:15.935Z,16.37
2022-11-23T06:51:47.194Z,16.37
2022-11-23T06:54:16.560Z,15.97
2022-11-23T06:56:44.457Z,17.10
2022-11-23T06:59:13.537Z,15.00
2022-11-23T07:01:41.530Z,15.03
2022-11-23T07:04:11.527Z,14.93
2022-11-23T07:06:47.402Z,14.60
2022-11-23T07:09:27.907Z,15.73
2022-11-23T07:12:16.186Z,15.17
2022-11-23T07:14:44.944Z,15.23
2022-11-23T07:17:17.306Z,15.40
2022-11-23T07:19:45.896Z,15.77
2022-11-23T07:22:13.953Z,15.93
2022-11-23T07:24:46.703Z,17.30
2022-11-23T07:27:15.058Z,18.00
2022-11-23T07:29:44.264Z,18.57
2022-11-23T07:32:14.916Z,17.73
2022-11-23T07:34:42.948Z,16.90
2022-11-23T07:37:11.284Z,18.23
2022-11-23T07:39:56.747Z,16.10
2022-11-23T07:42:41.489Z,16.40
2022-11-23T07:45:12.079Z,17.03
2022-11-23T07:47:44.699Z,16.73
2022-11-23T07:50:14.371Z,16.50
2022-11-23T07:52:42.295Z,17.23
2022-11-23T07:55:10.702Z,15.83
2022-11-23T07:57:39.981Z,17.17
2022-11-23T08:00:09.622Z,18.10
2022-11-23T08:02:57.951Z,16.27
2022-11-23T08:05:28.822Z,16.40
2022-11-23T08:08:00.117Z,17.37
2022-11-23T08:10:28.309Z,17.37
2022-11-23T08:12:59.746Z,18.37
2022-11-23T08:15:29.195Z,17.60
2022-11-23T08:17:57.219Z,16.73
2022-11-23T08:20:25.687Z,16.80
2022-11-23T08:22:55.875Z,16.77
2022-11-23T08:25:24.769Z,17.03
2022-11-23T08:27:56.369Z,16.87
2022-11-23T08:30:26.103Z,17.47
2022-11-23T08:32:54.178Z,15.80
2022-11-23T08:35:22.715Z,16.90
2022-11-23T08:37:50.684Z,14.17
2022-11-23T08:40:24.959Z,14.90
2022-11-23T08:42:53.690Z,13.97
2022-11-23T08:45:22.194Z,15.27
2022-11-23T08:47:53.063Z,15.10
2022-11-23T08:50:22.085Z,15.43
2022-11-23T08:52:55.196Z,15.57
2022-11-23T08:55:23.159Z,16.60
2022-11-23T08:57:51.471Z,16.00
2022-11-23T09:00:20.611Z,16.73
2022-11-23T09:02:48.673Z,16.57
2022-11-23T09:05:18.138Z,18.07
2022-11-23T09:07:46.140Z,18.20
2022-11-23T09:10:18.420Z,16.70
2022-11-23T09:12:48.022Z,17.17
2022-11-23T09:15:16.248Z,17.27
2022-11-23T09:17:44.253Z,16.90
2022-11-23T09:20:13.312Z,16.37
2022-11-23T09:22:42.617Z,15.40
2022-11-23T09:25:11.184Z,16.80
2022-11-23T09:27:39.128Z,15.97
2022-11-23T09:30:08.285Z,15.93
2022-11-23T09:32:36.246Z,17.00
2022-11-23T09:35:04.423Z,18.50
2022-11-23T09:37:32.338Z,17.80
2022-11-23T09:40:01.626Z,18.03
2022-11-23T09:42:53.296Z,18.40
2022-11-23T09:45:29.890Z,22.70
2022-11-23T09:48:28.921Z,20.07
2022-11-23T09:51:02.375Z,17.00
2022-11-23T09:53:35.177Z,19.13
2022-11-23T09:56:04.504Z,16.97
2022-11-23T09:58:38.752Z,17.43
2022-11-23T10:01:09.054Z,16.93
2022-11-23T10:03:45.400Z,18.60
2022-11-23T10:06:21.606Z,18.43
2022-11-23T10:09:01.780Z,17.63
2022-11-23T10:11:44.961Z,17.37
2022-11-23T10:14:32.408Z,17.27
2022-11-23T10:17:10.029Z,17.30
2022-11-23T10:19:54.060Z,18.10
2022-11-23T10:22:27.650Z,17.33
2022-11-23T10:25:02.562Z,18.27
2022-11-23T10:27:32.707Z,19.20
2022-11-23T10:30:01.381Z,20.13
2022-11-23T10:32:43.361Z,19.80
2022-11-23T10:35:14.275Z,19.60
2022-11-23T10:37:42.664Z,19.63
2022-11-23T10:40:18.092Z,18.90
2022-11-23T10:42:51.175Z,18.57
2022-11-23T10:45:24.627Z,18.47
2022-11-23T10:47:55.911Z,19.50
2022-11-23T10:50:27.597Z,19.17
2022-11-23T10:52:58.857Z,19.33
2022-11-23T10:55:30.156Z,20.50
2022-11-23T10:57:59.835Z,20.30
2022-11-23T11:00:31.169Z,20.67
2022-11-23T11:03:00.566Z,18.90
2022-11-23T11:06:06.931Z,19.80
2022-11-23T11:08:21.889Z,17.83
2022-11-23T11:10:51.037Z,19.80
2022-11-23T11:13:30.630Z,19.83
2022-11-23T11:16:00.963Z,20.03
2022-11-23T11:18:32.063Z,20.13
2022-11-23T11:21:04.189Z,21.17
2022-11-23T11:23:33.850Z,19.37
2022-11-23T11:26:08.883Z,19.73
2022-11-23T11:28:42.371Z,20.33
2022-11-23T11:31:31.160Z,20.23
2022-11-23T11:34:05.133Z,19.13
2022-11-23T11:36:38.736Z,19.20
2022-11-23T11:39:18.871Z,21.17
2022-11-23T11:41:50.655Z,19.70
2022-11-23T11:44:22.877Z,19.83
2022-11-23T11:46:57.775Z,17.33
2022-11-23T11:49:29.692Z,16.50
2022-11-23T11:52:04.514Z,17.33
2022-11-23T11:54:39.292Z,18.50
2022-11-23T11:57:18.271Z,17.67
2022-11-23T11:59:52.811Z,19.03
2022-11-23T12:02:25.317Z,20.07
2022-11-23T12:05:02.217Z,19.90
2022-11-23T12:07:33.209Z,20.70
2022-11-23T12:10:11.526Z,20.50
2022-11-23T12:12:40.777Z,19.87
2022-11-23T12:15:47.908Z,21.33
2022-11-23T12:18:38.295Z,24.70
2022-11-23T12:21:14.572Z,23.97
2022-11-23T12:23:53.630Z,20.63
2022-11-23T12:26:29.503Z,21.20
2022-11-23T12:29:25.059Z,20.97
2022-11-23T12:32:01.196Z,18.90
2022-11-23T12:34:45.167Z,19.77
2022-11-23T12:37:26.371Z,19.30
2022-11-23T12:40:29.825Z,19.93
2022-11-23T12:43:03.279Z,18.60
2022-11-23T12:45:51.367Z,20.37
2022-11-23T12:48:29.686Z,17.83
2022-11-23T12:51:06.463Z,18.73
2022-11-23T12:53:45.025Z,18.63
2022-11-23T12:56:21.336Z,18.40
2022-11-23T12:58:51.067Z,19.87
2022-11-23T13:01:26.344Z,19.53
2022-11-23T13:04:27.810Z,17.60
2022-11-23T13:07:30.328Z,18.93
2022-11-23T13:10:27.988Z,18.90
2022-11-23T13:13:15.678Z,18.87
2022-11-23T13:16:09.252Z,19.03
2022-11-23T13:19:02.993Z,19.40
2022-11-23T13:21:38.475Z,20.97
2022-11-23T13:24:24.885Z,23.80
2022-11-23T13:27:42.892Z,23.40
2022-11-23T13:30:25.215Z,19.67
2022-11-23T13:32:59.335Z,20.97
2022-11-23T13:36:00.073Z,20.33
2022-11-23T13:38:40.590Z,20.13
2022-11-23T13:41:57.558Z,20.13
2022-11-23T13:44:33.041Z,18.87
2022-11-23T13:47:20.012Z,19.13
2022-11-23T13:49:49.179Z,19.20
2022-11-23T13:52:27.967Z,22.53
2022-11-23T13:55:09.714Z,21.30
2022-11-23T13:57:39.202Z,20.40
2022-11-23T14:00:49.416Z,21.50
2022-11-23T14:03:47.783Z,20.43
2022-11-23T14:06:21.373Z,21.57
2022-11-23T14:08:51.257Z,20.80
2022-11-23T14:11:23.570Z,22.63
2022-11-23T14:13:56.320Z,23.00
2022-11-23T14:16:54.134Z,22.10
2022-11-23T14:19:28.422Z,22.60
2022-11-23T14:22:03.513Z,27.27
2022-11-23T14:24:51.196Z,25.43
2022-11-23T14:27:47.166Z,21.00
2022-11-23T14:30:42.118Z,23.00
2022-11-23T14:33:30.318Z,24.00
2022-11-23T14:36:13.910Z,25.63
2022-11-23T14:39:19.461Z,23.77
2022-11-23T14:41:53.271Z,22.70
2022-11-23T14:44:26.088Z,22.20
2022-11-23T14:47:04.504Z,22.60
2022-11-23T14:49:33.911Z,23.97
2022-11-23T14:52:04.228Z,23.23
2022-11-23T14:54:33.168Z,23.80
2022-11-23T14:57:03.910Z,23.70
2022-11-23T14:59:35.520Z,21.93
2022-11-23T15:02:05.698Z,31.70
2022-11-23T15:04:40.974Z,31.97
2022-11-23T15:07:14.399Z,25.77
2022-11-23T15:09:51.618Z,24.47
2022-11-23T15:12:23.369Z,23.70
2022-11-23T15:14:51.636Z,25.33
2022-11-23T15:17:21.401Z,23.30
2022-11-23T15:20:01.455Z,24.97
2022-11-23T15:22:31.205Z,23.97
2022-11-23T15:25:08.063Z,21.57
2022-11-23T15:27:40.976Z,24.27
2022-11-23T15:30:16.612Z,24.70
2022-11-23T15:32:44.845Z,25.67
2022-11-23T15:35:16.448Z,25.97
2022-11-23T15:37:46.992Z,25.93
2022-11-23T15:40:17.003Z,25.87
2022-11-23T15:42:46.238Z,25.87
2022-11-23T15:45:57.003Z,26.90
2022-11-23T15:48:30.127Z,26.90
2022-11-23T15:51:01.066Z,28.10
2022-11-23T15:53:30.691Z,28.23
2022-11-23T15:56:01.554Z,28.00
2022-11-23T15:58:30.339Z,28.07
2022-11-23T16:01:07.412Z,29.20
2022-11-23T16:03:42.289Z,28.83
2022-11-23T16:06:17.541Z,27.97
2022-11-23T16:08:46.753Z,27.57
2022-11-23T16:11:23.576Z,28.77
2022-11-23T16:13:51.611Z,27.47
2022-11-23T16:16:23.191Z,28.87
2022-11-23T16:18:56.746Z,28.07
2022-11-23T16:21:26.462Z,27.43
2022-11-23T16:23:56.717Z,27.67
2022-11-23T16:26:31.266Z,27.10
2022-11-23T16:29:00.669Z,25.53
2022-11-23T16:31:30.205Z,25.93
2022-11-23T16:33:58.289Z,28.70
2022-11-23T16:36:29.729Z,27.73
2022-11-23T16:39:01.025Z,27.60
2022-11-23T16:41:32.055Z,26.30
2022-11-23T16:44:00.032Z,26.17
2022-11-23T16:46:28.017Z,26.40
2022-11-23T16:48:57.433Z,25.80
2022-11-23T16:51:25.811Z,27.70
2022-11-23T16:54:13.029Z,27.87
2022-11-23T16:56:42.288Z,29.03
2022-11-23T16:59:17.035Z,29.60
2022-11-23T17:01:46.834Z,27.80
2022-11-23T17:04:17.173Z,29.77
2022-11-23T17:06:45.266Z,30.10
2022-11-23T17:09:14.568Z,29.13
2022-11-23T17:11:45.980Z,27.87
2022-11-23T17:14:18.861Z,27.27
2022-11-23T17:16:48.207Z,26.00
2022-11-23T17:19:17.164Z,26.13
2022-11-23T17:21:45.232Z,24.60
2022-11-23T17:24:15.190Z,25.90
2022-11-23T17:26:46.388Z,28.97
2022-11-23T17:29:18.945Z,25.10
2022-11-23T17:31:47.142Z,23.00
2022-11-23T17:34:16.053Z,24.00
2022-11-23T17:36:45.351Z,25.27
2022-11-23T17:39:19.927Z,33.60
2022-11-23T17:41:49.066Z,24.77
2022-11-23T17:44:17.533Z,24.27
2022-11-23T17:46:46.871Z,25.50
2022-11-23T17:49:16.988Z,28.33
2022-11-23T17:51:44.924Z,27.93
2022-11-23T17:54:12.871Z,27.70
2022-11-23T17:56:42.205Z,26.03
2022-11-23T17:59:10.142Z,27.90
2022-11-23T18:01:38.477Z,28.13
2022-11-23T18:04:06.734Z,28.27
2022-11-23T18:06:34.816Z,26.37
2022-11-23T18:09:02.775Z,26.37
2022-11-23T18:11:30.696Z,26.90
2022-11-23T18:14:00.227Z,26.50
2022-11-23T18:16:28.112Z,26.67
2022-11-23T18:18:56.201Z,24.97
2022-11-23T18:21:24.399Z,26.13
2022-11-23T18:23:52.328Z,25.90
2022-11-23T18:26:21.760Z,24.97
2022-11-23T18:28:50.387Z,24.77
2022-11-23T18:31:20.709Z,23.53
2022-11-23T18:33:49.243Z,24.27
2022-11-23T18:36:17.275Z,22.30
2022-11-23T18:38:45.859Z,26.20
2022-11-23T18:41:16.359Z,26.43
2022-11-23T18:43:44.557Z,30.57
2022-11-23T18:46:19.523Z,26.63
2022-11-23T18:48:50.266Z,28.73
2022-11-23T18:51:19.422Z,27.50
2022-11-23T18:53:47.905Z,27.23
2022-11-23T18:56:16.167Z,25.77
2022-11-23T18:58:45.381Z,25.43
2022-11-23T19:01:15.806Z,27.43
2022-11-23T19:03:44.095Z,26.13
2022-11-23T19:06:14.718Z,26.93
2022-11-23T19:08:44.114Z,27.47
2022-11-23T19:11:16.357Z,25.23
2022-11-23T19:13:44.821Z,26.97
2022-11-23T19:16:14.441Z,28.93
2022-11-23T19:18:42.951Z,29.43
2022-11-23T19:21:17.395Z,25.27
2022-11-23T19:23:45.911Z,26.60
2022-11-23T19:26:13.869Z,24.87
2022-11-23T19:28:44.779Z,25.63
2022-11-23T19:31:14.152Z,26.50
2022-11-23T19:33:42.492Z,24.00
2022-11-23T19:36:12.939Z,24.60
2022-11-23T19:38:42.781Z,26.33
2022-11-23T19:41:11.173Z,28.27
2022-11-23T19:43:39.317Z,23.57
2022-11-23T19:46:08.789Z,24.30
2022-11-23T19:48:36.712Z,25.33
2022-11-23T19:51:07.123Z,24.37
2022-11-23T19:53:36.310Z,26.37
2022-11-23T19:56:07.646Z,26.27
2022-11-23T19:58:35.869Z,24.83
2022-11-23T20:01:05.884Z,26.47
2022-11-23T20:03:36.234Z,26.07
2022-11-23T20:06:06.717Z,24.00
2022-11-23T20:08:34.806Z,25.13
2022-11-23T20:11:09.230Z,23.73
2022-11-23T20:13:37.714Z,24.07
2022-11-23T20:16:06.838Z,22.73
2022-11-23T20:18:34.945Z,23.87
2022-11-23T20:21:03.121Z,22.00
2022-11-23T20:23:31.119Z,22.40
2022-11-23T20:25:59.664Z,23.97
2022-11-23T20:28:28.999Z,21.97
2022-11-23T20:30:57.070Z,23.50
2022-11-23T20:33:25.023Z,25.93
2022-11-23T20:35:53.060Z,25.00
2022-11-23T20:38:21.162Z,24.80
2022-11-23T20:40:49.080Z,24.77
2022-11-23T20:43:17.226Z,24.43
2022-11-23T20:45:46.500Z,24.70
2022-11-23T20:48:14.410Z,24.83
2022-11-23T20:50:42.549Z,25.60
2022-11-23T20:53:10.544Z,26.03
2022-11-23T20:55:38.490Z,26.03
2022-11-23T20:58:06.736Z,25.00
2022-11-23T21:00:34.673Z,26.80
2022-11-23T21:03:04.206Z,24.07
2022-11-23T21:05:32.240Z,26.47
2022-11-23T21:08:01.356Z,25.60
2022-11-23T21:10:46.746Z,25.97
2022-11-23T21:13:48.502Z,26.97
2022-11-23T21:16:17.447Z,26.90
2022-11-23T21:18:46.803Z,25.63
2022-11-23T21:21:14.774Z,24.93
2022-11-23T21:23:42.761Z,23.70
2022-11-23T21:26:10.694Z,25.27
2022-11-23T21:28:38.667Z,24.73
2022-11-23T21:31:08.601Z,26.63
2022-11-23T21:33:37.226Z,25.53
2022-11-23T21:36:07.874Z,25.50
2022-11-23T21:38:36.728Z,22.90
2022-11-23T21:41:07.071Z,24.00
2022-11-23T21:43:35.110Z,22.17
2022-11-23T21:46:04.386Z,24.00
2022-11-23T21:48:32.654Z,22.80
2022-11-23T21:51:01.710Z,22.77
2022-11-23T21:53:31.815Z,25.53
2022-11-23T21:56:04.326Z,24.23
2022-11-23T21:58:32.563Z,24.27
2022-11-23T22:01:05.445Z,24.43
2022-11-23T22:03:37.734Z,25.17
2022-11-23T22:06:06.616Z,24.53
2022-11-23T22:08:40.498Z,22.87
2022-11-23T22:11:11.749Z,23.33
2022-11-23T22:13:42.717Z,20.37
2022-11-23T22:16:19.236Z,21.33
2022-11-23T22:18:54.021Z,20.47
2022-11-23T22:21:25.590Z,20.03
2022-11-23T22:23:55.496Z,20.70
2022-11-23T22:26:23.847Z,21.87
2022-11-23T22:28:52.662Z,21.50
2022-11-23T22:31:22.764Z,19.97
2022-11-23T22:33:51.152Z,21.03
2022-11-23T22:36:20.622Z,21.50
2022-11-23T22:38:49.628Z,21.43
2022-11-23T22:41:19.106Z,21.23
2022-11-23T22:43:47.486Z,23.33
2022-11-23T22:46:18.118Z,23.37
2022-11-23T22:48:48.976Z,23.90
2022-11-23T22:51:19.765Z,24.13
2022-11-23T22:53:48.193Z,23.00
2022-11-23T22:56:19.509Z,22.27
2022-11-23T22:58:48.537Z,21.87
2022-11-23T23:01:18.424Z,21.30
2022-11-23T23:03:47.192Z,20.57
2022-11-23T23:06:17.337Z,18.17
2022-11-23T23:08:45.843Z,18.03
2022-11-23T23:11:14.749Z,18.23
2022-11-23T23:13:44.173Z,17.83
2022-11-23T23:16:13.957Z,18.27
2022-11-23T23:18:42.717Z,17.20
2022-11-23T23:21:14.304Z,18.27
2022-11-23T23:23:47.393Z,18.30
2022-11-23T23:26:17.223Z,17.87
2022-11-23T23:28:48.104Z,20.80
2022-11-23T23:31:17.696Z,22.17
2022-11-23T23:33:46.590Z,23.43
2022-11-23T23:36:16.224Z,21.87
2022-11-23T23:38:44.692Z,21.97
2022-11-23T23:41:14.221Z,23.57
2022-11-23T23:43:42.678Z,21.83
2022-11-23T23:46:13.854Z,23.83
2022-11-23T23:48:42.409Z,22.63
2022-11-23T23:51:12.340Z,21.90
2022-11-23T23:53:41.258Z,22.87
2022-11-23T23:56:14.471Z,21.93
2022-11-23T23:58:42.966Z,21.17
